Time;durP1;ratioP1;P1;durP2;ratioP2;P2;SDS_P1;SDS_P2;PMS_P1;PMS_P2;Temp;Humidity;BMP_temperature;BMP_pressure;BME280_temperature;BME280_humidity;BME280_pressure;Samples;Min_cycle;Max_cycle;Signal;HPM_P1;HPM_P2
2022/09/09 00:00:56;;;;;;;32.97;25.27;;;;;;;17.71;100.00;99349.16;5073856;28;20648;-86
2022/09/09 00:03:26;;;;;;;27.57;22.63;;;;;;;17.62;100.00;99344.78;5074705;28;20165;-86
2022/09/09 00:06:19;;;;;;;28.40;22.13;;;;;;;18.13;100.00;99437.72;5073718;28;20617;-86
2022/09/09 00:08:47;;;;;;;26.47;20.30;;;;;;;18.12;100.00;99433.44;5073842;28;20164;-86
2022/09/09 00:11:21;;;;;;;28.30;19.83;;;;;;;17.65;100.00;99343.13;5074318;28;20289;-86
2022/09/09 00:13:51;;;;;;;23.93;19.50;;;;;;;18.03;100.00;99425.63;5076844;28;20193;-85
2022/09/09 00:16:23;;;;;;;24.17;19.90;;;;;;;18.18;100.00;99436.06;5078132;28;20189;-85
2022/09/09 00:18:50;;;;;;;22.33;19.20;;;;;;;18.23;100.00;99431.91;5076975;28;20245;-85
2022/09/09 00:21:17;;;;;;;24.80;19.70;;;;;;;17.93;100.00;99393.03;5074653;28;20167;-85
2022/09/09 00:23:52;;;;;;;22.50;20.07;;;;;;;18.05;100.00;99429.06;5073813;28;20171;-85
2022/09/09 00:26:32;;;;;;;25.03;19.90;;;;;;;17.89;100.00;99429.69;5062649;28;20233;-85
2022/09/09 00:29:14;;;;;;;27.27;20.40;;;;;;;14.63;100.00;98899.41;5053723;28;20298;-86
2022/09/09 00:31:39;;;;;;;22.70;19.07;;;;;;;17.97;100.00;99442.59;5053228;28;20547;-86
2022/09/09 00:34:18;;;;;;;24.23;19.70;;;;;;;17.83;100.00;99436.41;5055213;28;20228;-86
2022/09/09 00:36:46;;;;;;;24.93;20.80;;;;;;;17.86;100.00;99473.19;5057706;28;20197;-86
2022/09/09 00:39:38;;;;;;;25.47;20.97;;;;;;;17.90;100.00;99449.34;5058826;28;20165;-87
2022/09/09 00:42:23;;;;;;;26.23;21.70;;;;;;;17.79;100.00;99430.38;5013756;28;20202;-86
2022/09/09 00:45:08;;;;;;;30.40;22.10;;;;;;;17.81;100.00;99444.06;5012558;28;20220;-87
2022/09/09 00:47:39;;;;;;;23.83;21.23;;;;;;;17.69;100.00;99408.88;4972681;28;20190;-87
2022/09/09 00:50:24;;;;;;;25.67;21.50;;;;;;;17.97;100.00;99435.78;4971747;28;20191;-87
2022/09/09 00:52:50;;;;;;;28.17;20.90;;;;;;;17.93;100.00;99433.16;4971757;28;20216;-87
2022/09/09 00:55:28;;;;;;;26.80;21.50;;;;;;;18.02;100.00;99443.56;4969170;28;20726;-86
2022/09/09 00:57:54;;;;;;;30.17;22.77;;;;;;;15.92;100.00;99090.56;4952455;28;20356;-87
2022/09/09 01:00:30;;;;;;;27.93;21.37;;;;;;;17.92;100.00;99450.22;4952981;29;20188;-86
2022/09/09 01:03:02;;;;;;;25.13;20.87;;;;;;;17.84;100.00;99449.25;4952365;29;20168;-86
2022/09/09 01:05:35;;;;;;;24.50;20.87;;;;;;;17.80;100.00;99444.91;4936190;28;20283;-85
2022/09/09 01:08:05;;;;;;;26.27;21.63;;;;;;;17.88;100.00;99445.88;4953038;29;20173;-85
2022/09/09 01:10:44;;;;;;;27.50;21.23;;;;;;;17.39;100.00;99371.66;4952675;29;20164;-85
2022/09/09 01:13:19;;;;;;;25.60;21.70;;;;;;;17.87;100.00;99443.31;4952763;29;20216;-85
2022/09/09 01:15:46;;;;;;;25.50;21.20;;;;;;;16.86;100.00;99271.91;4952959;29;20211;-85
2022/09/09 01:18:16;;;;;;;27.07;21.73;;;;;;;17.85;100.00;99439.88;4963529;28;20681;-86
2022/09/09 01:20:51;;;;;;;25.67;21.37;;;;;;;17.77;100.00;99444.88;5011519;28;20174;-85
2022/09/09 01:23:16;;;;;;;28.70;21.60;;;;;;;17.70;100.00;99450.72;5011948;28;20232;-86
2022/09/09 01:26:03;;;;;;;26.47;21.10;;;;;;;17.73;100.00;99440.53;5053282;28;20205;-86
2022/09/09 01:28:30;;;;;;;26.83;21.17;;;;;;;17.59;100.00;99442.00;5055786;28;20169;-85
2022/09/09 01:30:57;;;;;;;29.00;22.20;;;;;;;17.24;100.00;99407.25;5066949;28;20236;-85
2022/09/09 01:33:23;;;;;;;26.33;21.50;;;;;;;17.52;100.00;99447.84;5066050;28;20236;-86
2022/09/09 01:36:13;;;;;;;26.20;21.57;;;;;;;16.76;100.00;99325.41;5053924;28;20652;-85
2022/09/09 01:38:39;;;;;;;25.77;21.50;;;;;;;16.73;100.00;99310.88;5056386;28;20169;-86
2022/09/09 01:41:05;;;;;;;27.17;22.17;;;;;;;17.49;100.00;99430.75;5056551;28;20211;-86
2022/09/09 01:43:30;;;;;;;25.57;21.67;;;;;;;17.43;100.00;99424.66;5057617;28;20161;-85
2022/09/09 01:46:00;;;;;;;29.63;21.07;;;;;;;17.62;100.00;99444.63;5057409;28;20252;-85
2022/09/09 01:48:26;;;;;;;29.40;21.80;;;;;;;16.07;100.00;99192.13;5064157;28;20158;-85
2022/09/09 01:50:51;;;;;;;25.97;22.07;;;;;;;17.54;100.00;99433.41;5063544;28;20645;-86
2022/09/09 01:53:18;;;;;;;26.80;21.37;;;;;;;17.20;100.00;99379.88;5060733;28;20165;-86
2022/09/09 01:56:18;;;;;;;28.10;21.10;;;;;;;16.83;100.00;99323.00;5067679;28;20176;-85
2022/09/09 01:59:21;;;;;;;24.23;21.10;;;;;;;17.49;100.00;99443.53;5076611;28;20225;-85
2022/09/09 02:01:56;;;;;;;26.10;20.63;;;;;;;17.44;100.00;99451.97;5076497;28;20156;-85
2022/09/09 02:04:38;;;;;;;24.93;21.53;;;;;;;16.46;100.00;99289.91;5076891;28;20156;-85
2022/09/09 02:07:17;;;;;;;29.53;22.77;;;;;;;17.04;100.00;99432.47;5077727;28;20180;-85
2022/09/09 02:09:46;;;;;;;29.37;22.43;;;;;;;16.40;100.00;99302.56;5075954;28;20173;-85
2022/09/09 02:12:17;;;;;;;30.50;21.70;;;;;;;15.41;100.00;99131.22;5091846;28;20698;-85
2022/09/09 02:14:52;;;;;;;27.80;21.27;;;;;;;17.20;100.00;99443.84;5076085;28;20161;-87
2022/09/09 02:17:26;;;;;;;28.63;21.37;;;;;;;16.57;100.00;99349.78;5078751;28;20195;-86
2022/09/09 02:20:03;;;;;;;24.53;20.53;;;;;;;17.28;100.00;99443.16;5076992;28;20691;-86
2022/09/09 02:22:31;;;;;;;28.93;21.07;;;;;;;16.33;100.00;99272.63;5076111;28;20161;-86
2022/09/09 02:24:59;;;;;;;27.30;21.47;;;;;;;16.81;100.00;99344.28;5072145;28;20252;-86
2022/09/09 02:27:25;;;;;;;25.93;20.40;;;;;;;17.31;100.00;99425.28;5057468;28;20165;-86
2022/09/09 02:29:52;;;;;;;25.90;19.90;;;;;;;16.98;100.00;99379.53;5056826;28;20735;-86
2022/09/09 02:32:22;;;;;;;25.07;19.73;;;;;;;15.38;100.00;99131.19;5055977;28;20185;-86
2022/09/09 02:34:51;;;;;;;25.47;20.30;;;;;;;16.10;100.00;99226.22;5066102;28;20227;-86
2022/09/09 02:37:20;;;;;;;24.43;20.17;;;;;;;17.24;100.00;99438.84;5076151;28;20193;-85
2022/09/09 02:39:46;;;;;;;24.57;19.70;;;;;;;17.26;100.00;99436.28;5076776;28;20243;-85
2022/09/09 02:42:14;;;;;;;24.67;20.20;;;;;;;16.06;100.00;99218.47;5076823;28;20173;-85
2022/09/09 02:44:40;;;;;;;26.10;20.17;;;;;;;17.44;100.00;99441.75;5076556;28;20157;-85
2022/09/09 02:47:24;;;;;;;23.67;19.23;;;;;;;17.55;100.00;99432.56;5077002;28;20244;-85
2022/09/09 02:50:02;;;;;;;23.60;19.40;;;;;;;17.46;100.00;99445.19;5090662;28;20650;-85
2022/09/09 02:52:48;;;;;;;28.10;21.87;;;;;;;17.41;100.00;99457.91;5076972;28;20212;-85
2022/09/09 02:55:24;;;;;;;32.30;23.93;;;;;;;17.06;100.00;99387.31;5013867;28;20216;-85
2022/09/09 02:57:51;;;;;;;29.03;20.97;;;;;;;17.01;100.00;99396.63;5013645;28;20206;-85
2022/09/09 03:00:24;;;;;;;33.87;24.23;;;;;;;17.32;100.00;99432.16;5015952;28;20666;-85
2022/09/09 03:02:50;;;;;;;39.13;23.20;;;;;;;16.03;100.00;99208.19;5015744;28;20159;-85
2022/09/09 03:05:15;;;;;;;33.17;22.10;;;;;;;17.44;100.00;99462.22;4998430;28;20327;-85
2022/09/09 03:07:41;;;;;;;30.57;23.37;;;;;;;16.67;100.00;99341.47;5016919;28;20660;-85
2022/09/09 03:10:07;;;;;;;35.73;23.87;;;;;;;15.54;100.00;99151.09;4999090;28;20175;-85
2022/09/09 03:12:33;;;;;;;34.73;23.73;;;;;;;17.39;100.00;99445.88;5014638;28;20187;-85
2022/09/09 03:14:58;;;;;;;35.83;22.17;;;;;;;15.90;100.00;99222.44;5014267;28;20174;-85
2022/09/09 03:17:24;;;;;;;29.37;22.67;;;;;;;16.38;100.00;99317.00;5016438;28;20191;-86
2022/09/09 03:19:52;;;;;;;28.07;21.10;;;;;;;16.43;100.00;99335.84;4999467;28;20760;-86
2022/09/09 03:22:17;;;;;;;28.87;21.97;;;;;;;16.43;100.00;99335.84;5014284;28;20197;-86
2022/09/09 03:24:43;;;;;;;29.20;22.90;;;;;;;16.38;100.00;99342.56;5007320;28;20191;-86
2022/09/09 03:27:08;;;;;;;33.73;22.63;;;;;;;17.01;100.00;99470.78;4993431;28;20246;-86
2022/09/09 03:29:34;;;;;;;33.13;22.90;;;;;;;15.08;100.00;99156.06;4993877;28;20640;-86
2022/09/09 03:31:59;;;;;;;33.13;22.90;;;;;;;16.84;100.00;99467.91;5017210;28;20192;-86
2022/09/09 03:34:24;;;;;;;31.47;23.10;;;;;;;14.90;100.00;99155.63;5056142;28;20251;-86
2022/09/09 03:36:50;;;;;;;30.30;22.27;;;;;;;15.87;100.00;99356.00;5055311;28;20200;-86
2022/09/09 03:39:15;;;;;;;33.03;23.57;;;;;;;16.19;100.00;99411.97;5053315;28;20168;-85
2022/09/09 03:41:41;;;;;;;33.67;24.30;;;;;;;15.69;100.00;99309.63;5069677;28;20178;-85
2022/09/09 03:44:06;;;;;;;34.80;25.80;;;;;;;15.56;100.00;99294.00;5073129;28;20580;-85
2022/09/09 03:46:32;;;;;;;32.23;23.67;;;;;;;16.77;100.00;99476.28;5075210;28;20169;-86
2022/09/09 03:48:57;;;;;;;33.97;22.13;;;;;;;16.79;100.00;99473.75;5070927;28;20177;-85
2022/09/09 03:51:23;;;;;;;33.97;23.00;;;;;;;13.67;100.00;98954.09;5076782;28;20169;-87
2022/09/09 03:53:48;;;;;;;35.17;22.50;;;;;;;16.39;100.00;99400.50;5073157;28;20169;-87
2022/09/09 03:56:14;;;;;;;31.97;22.27;;;;;;;16.42;100.00;99406.53;5074155;28;20156;-87
2022/09/09 03:58:40;;;;;;;35.60;22.50;;;;;;;14.79;100.00;99132.44;5074597;28;20161;-85
2022/09/09 04:01:14;;;;;;;34.90;21.40;;;;;;;16.87;100.00;99480.75;5074841;28;20161;-86
2022/09/09 04:03:40;;;;;;;35.07;20.37;;;;;;;15.02;100.00;99204.34;5073919;28;20163;-85
2022/09/09 04:06:09;;;;;;;28.73;19.83;;;;;;;16.53;100.00;99497.09;5073147;28;20635;-84
2022/09/09 04:08:35;;;;;;;30.87;19.53;;;;;;;16.59;100.00;99475.91;5073274;28;20229;-86
2022/09/09 04:11:06;;;;;;;32.13;20.30;;;;;;;16.25;100.00;99407.00;5075398;28;20153;-86
2022/09/09 04:13:33;;;;;;;35.07;21.30;;;;;;;15.52;100.00;99287.97;5073200;28;20168;-85
2022/09/09 04:16:00;;;;;;;33.97;21.17;;;;;;;16.74;100.00;99473.69;5073160;28;20572;-86
2022/09/09 04:18:27;;;;;;;32.27;21.37;;;;;;;16.28;100.00;99373.88;5070425;28;20193;-86
2022/09/09 04:20:54;;;;;;;30.00;20.60;;;;;;;16.34;100.00;99381.66;5052661;28;20564;-86
2022/09/09 04:23:20;;;;;;;29.93;20.87;;;;;;;16.58;100.00;99417.97;5053281;28;20158;-86
2022/09/09 04:25:50;;;;;;;34.00;21.27;;;;;;;15.70;100.00;99244.13;5053189;28;20655;-86
2022/09/09 04:28:18;;;;;;;30.93;20.90;;;;;;;17.01;100.00;99460.56;5053068;28;20193;-86
2022/09/09 04:30:44;;;;;;;30.70;20.63;;;;;;;16.11;100.00;99291.78;5052813;28;20177;-85
2022/09/09 04:33:11;;;;;;;30.33;21.27;;;;;;;17.13;100.00;99454.81;5052498;28;20633;-84
2022/09/09 04:35:37;;;;;;;31.90;21.07;;;;;;;17.13;100.00;99465.91;5052994;28;20977;-85
2022/09/09 04:38:03;;;;;;;30.77;21.73;;;;;;;16.46;100.00;99351.22;5052576;28;20197;-85
2022/09/09 04:40:31;;;;;;;32.17;21.93;;;;;;;17.17;100.00;99474.50;5054092;28;20197;-85
2022/09/09 04:43:06;;;;;;;28.77;21.77;;;;;;;17.12;100.00;99479.53;5053411;28;20244;-87
2022/09/09 04:45:33;;;;;;;29.37;21.00;;;;;;;16.65;100.00;99419.78;5054644;28;20176;-85
2022/09/09 04:47:59;;;;;;;31.50;21.33;;;;;;;15.06;100.00;99162.78;5060698;28;20156;-86
2022/09/09 04:50:24;;;;;;;28.53;21.37;;;;;;;17.06;100.00;99494.75;5071707;28;20173;-85
2022/09/09 04:52:50;;;;;;;29.77;21.60;;;;;;;15.95;100.00;99345.94;5074725;28;20239;-86
2022/09/09 04:55:15;;;;;;;26.07;20.90;;;;;;;16.81;100.00;99490.00;5074626;28;20235;-86
2022/09/09 04:57:41;;;;;;;35.37;21.60;;;;;;;16.26;100.00;99376.38;5070603;28;20192;-85
2022/09/09 05:00:07;;;;;;;31.67;20.73;;;;;;;16.29;100.00;99419.00;5073594;28;20545;-85
2022/09/09 05:02:36;;;;;;;25.40;20.57;;;;;;;15.40;100.00;99254.53;5075064;28;20172;-85
2022/09/09 05:05:02;;;;;;;23.77;19.47;;;;;;;16.91;100.00;99480.00;5078631;28;20219;-85
2022/09/09 05:07:28;;;;;;;29.50;20.23;;;;;;;16.76;100.00;99494.16;5086791;28;20157;-86
2022/09/09 05:09:54;;;;;;;30.23;20.87;;;;;;;15.60;100.00;99329.81;5075345;28;20161;-85
2022/09/09 05:12:19;;;;;;;29.20;20.80;;;;;;;16.70;100.00;99488.94;5071648;28;20263;-85
2022/09/09 05:14:45;;;;;;;28.00;20.53;;;;;;;15.35;100.00;99315.63;5072130;28;20251;-86
2022/09/09 05:17:10;;;;;;;30.73;21.70;;;;;;;15.48;100.00;99355.09;5075113;28;20253;-84
2022/09/09 05:19:36;;;;;;;30.57;20.93;;;;;;;16.60;100.00;99487.84;5068791;28;20173;-86
2022/09/09 05:22:02;;;;;;;29.93;21.37;;;;;;;15.73;100.00;99353.97;5094603;28;20458;-85
2022/09/09 05:24:29;;;;;;;29.40;20.30;;;;;;;15.99;100.00;99346.88;5066748;28;20252;-85
2022/09/09 05:26:57;;;;;;;25.20;21.20;;;;;;;14.89;100.00;99164.13;5063770;28;20215;-86
2022/09/09 05:29:23;;;;;;;32.00;21.27;;;;;;;14.50;100.00;99105.47;5052935;28;20165;-86
2022/09/09 05:31:48;;;;;;;29.53;22.27;;;;;;;16.38;100.00;99414.09;5067502;28;20641;-86
2022/09/09 05:34:14;;;;;;;30.77;20.93;;;;;;;16.17;100.00;99365.13;5051778;28;20667;-86
2022/09/09 05:36:39;;;;;;;26.90;21.13;;;;;;;14.93;100.00;99122.56;5052222;28;20254;-86
2022/09/09 05:39:04;;;;;;;26.63;20.20;;;;;;;16.11;100.00;99324.13;5052045;28;20240;-87
2022/09/09 05:41:31;;;;;;;24.50;19.40;;;;;;;17.29;100.00;99467.91;5071585;28;20196;-84
2022/09/09 05:43:58;;;;;;;26.13;20.67;;;;;;;13.86;100.00;98896.88;5070685;28;20184;-85
2022/09/09 05:46:27;;;;;;;25.30;19.77;;;;;;;16.66;100.00;99357.63;5074892;28;20160;-85
2022/09/09 05:48:53;;;;;;;28.43;19.57;;;;;;;17.13;98.68;99416.44;5078318;28;20663;-85
2022/09/09 05:51:22;;;;;;;26.07;19.17;;;;;;;17.59;97.52;99480.41;5081179;28;20247;-86
2022/09/09 05:53:48;;;;;;;25.17;18.17;;;;;;;17.21;99.55;99499.31;5077966;28;20165;-84
2022/09/09 05:56:16;;;;;;;22.37;17.20;;;;;;;16.48;98.11;99358.09;5073453;28;20168;-85
2022/09/09 05:58:43;;;;;;;21.50;16.43;;;;;;;17.35;97.62;99493.63;5072188;28;20153;-85
2022/09/09 06:01:27;;;;;;;23.13;16.63;;;;;;;17.36;96.24;99459.50;5071903;28;20153;-85
2022/09/09 06:03:53;;;;;;;25.73;16.83;;;;;;;17.90;94.33;99484.34;5072999;28;20169;-85
2022/09/09 06:06:21;;;;;;;25.73;16.50;;;;;;;17.98;93.19;99477.63;5071688;28;20629;-85
2022/09/09 06:08:47;;;;;;;22.83;16.20;;;;;;;16.97;91.51;99249.94;5073634;28;20161;-86
2022/09/09 06:11:21;;;;;;;22.30;15.83;;;;;;;18.60;90.21;99471.72;5073331;28;20636;-86
2022/09/09 06:13:47;;;;;;;28.00;17.10;;;;;;;17.24;88.04;99182.09;5072956;28;20160;-86
2022/09/09 06:16:16;;;;;;;25.97;15.93;;;;;;;17.99;87.35;99284.69;5073301;28;20198;-86
2022/09/09 06:18:42;;;;;;;25.20;16.63;;;;;;;18.90;88.09;99472.94;5072957;28;20172;-86
2022/09/09 06:21:22;;;;;;;25.47;16.63;;;;;;;18.92;87.93;99473.81;5072893;28;20168;-86
2022/09/09 06:23:47;;;;;;;27.90;17.40;;;;;;;18.61;88.82;99431.56;5074755;28;20648;-86
2022/09/09 06:26:18;;;;;;;23.40;17.13;;;;;;;19.02;85.92;99429.44;5076303;28;20202;-86
2022/09/09 06:28:45;;;;;;;26.00;16.00;;;;;;;18.79;83.33;99324.03;5075991;28;20165;-86
2022/09/09 06:31:12;;;;;;;25.93;16.70;;;;;;;19.35;85.17;99473.41;5076369;28;20165;-86
2022/09/09 06:33:40;;;;;;;24.37;16.63;;;;;;;19.30;85.59;99483.66;5076914;28;20228;-86
2022/09/09 06:36:11;;;;;;;20.70;16.33;;;;;;;18.81;83.48;99341.19;5076914;28;20172;-86
2022/09/09 06:38:37;;;;;;;24.97;16.47;;;;;;;19.61;84.27;99489.97;5076275;28;20169;-86
2022/09/09 06:41:03;;;;;;;27.63;18.07;;;;;;;18.88;82.34;99316.41;5075311;28;20171;-85
2022/09/09 06:43:29;;;;;;;27.17;16.97;;;;;;;20.13;81.39;99491.25;5075238;28;20161;-85
2022/09/09 06:45:55;;;;;;;25.27;16.33;;;;;;;19.85;81.57;99484.19;5076466;28;20180;-85
2022/09/09 06:48:21;;;;;;;19.93;16.90;;;;;;;19.39;84.75;99499.16;5076237;28;20157;-84
2022/09/09 06:50:46;;;;;;;20.90;16.90;;;;;;;17.74;82.91;99140.13;5075509;28;20230;-85
2022/09/09 06:53:12;;;;;;;19.27;16.30;;;;;;;20.02;81.30;99506.56;5075135;28;20226;-85
2022/09/09 06:55:40;;;;;;;20.47;15.97;;;;;;;19.10;81.59;99361.94;5075229;28;20660;-86
2022/09/09 06:58:08;;;;;;;22.40;16.30;;;;;;;18.89;82.98;99346.38;5074708;28;20672;-85
2022/09/09 07:00:34;;;;;;;22.13;15.77;;;;;;;20.18;79.80;99489.56;5075938;28;20160;-85
2022/09/09 07:02:59;;;;;;;21.67;16.23;;;;;;;19.91;80.75;99487.63;5078266;28;20157;-84
2022/09/09 07:05:25;;;;;;;18.83;15.70;;;;;;;19.84;79.40;99419.06;5077169;28;20188;-84
2022/09/09 07:07:51;;;;;;;19.83;15.67;;;;;;;19.89;73.96;99331.72;5077933;28;20157;-85
2022/09/09 07:10:17;;;;;;;19.93;14.93;;;;;;;20.38;71.33;99318.25;5078075;28;20175;-85
2022/09/09 07:12:42;;;;;;;18.93;14.60;;;;;;;19.71;68.93;99174.94;5075248;28;20609;-85
2022/09/09 07:15:09;;;;;;;19.33;14.43;;;;;;;21.02;69.18;99382.75;5074590;28;20165;-85
2022/09/09 07:17:35;;;;;;;18.80;15.37;;;;;;;21.15;67.84;99359.63;5074901;28;20192;-86
2022/09/09 07:20:02;;;;;;;20.33;15.00;;;;;;;20.93;67.36;99295.25;5075615;28;20174;-87
2022/09/09 07:22:28;;;;;;;23.90;15.80;;;;;;;21.85;68.15;99493.63;5074820;28;20636;-85
2022/09/09 07:24:53;;;;;;;19.87;15.27;;;;;;;22.29;65.48;99491.03;5074892;28;20168;-85
2022/09/09 07:27:19;;;;;;;16.73;13.63;;;;;;;21.77;64.21;99341.56;5075523;28;20287;-85
2022/09/09 07:29:45;;;;;;;22.97;16.87;;;;;;;22.83;63.13;99493.47;5077146;28;20164;-85
2022/09/09 07:32:10;;;;;;;24.30;15.83;;;;;;;23.18;61.68;99495.03;5077266;28;20621;-85
2022/09/09 07:34:36;;;;;;;18.37;13.50;;;;;;;23.18;61.11;99495.03;5073277;28;20227;-85
2022/09/09 07:37:02;;;;;;;18.60;13.00;;;;;;;21.37;62.29;99270.34;5074167;28;20192;-86
2022/09/09 07:39:27;;;;;;;17.47;13.23;;;;;;;22.83;62.50;99497.75;5076150;28;20339;-85
2022/09/09 07:41:54;;;;;;;20.10;13.40;;;;;;;22.79;60.49;99404.00;5074140;28;20157;-86
2022/09/09 07:44:24;;;;;;;18.33;12.77;;;;;;;23.64;59.41;99491.31;5074426;28;20157;-86
2022/09/09 07:46:50;;;;;;;15.33;12.20;;;;;;;21.94;58.63;99165.38;5073946;28;20555;-85
2022/09/09 07:49:17;;;;;;;24.67;12.27;;;;;;;23.95;57.88;99471.25;5073506;28;20168;-86
2022/09/09 07:51:47;;;;;;;15.97;11.83;;;;;;;21.40;56.95;99015.34;5073407;28;20169;-85
2022/09/09 07:54:15;;;;;;;20.47;12.67;;;;;;;24.50;56.64;99494.88;5073544;28;20164;-86
2022/09/09 07:56:40;;;;;;;14.03;11.73;;;;;;;24.72;55.43;99488.59;5073294;28;20242;-86
2022/09/09 07:59:07;;;;;;;18.23;12.20;;;;;;;24.87;54.71;99487.56;5074656;28;20617;-85
2022/09/09 08:01:38;;;;;;;13.70;11.07;;;;;;;22.15;54.10;99013.09;5074796;28;20157;-87
2022/09/09 08:04:06;;;;;;;14.03;10.87;;;;;;;24.10;53.29;99315.03;5074233;28;20157;-86
2022/09/09 08:06:36;;;;;;;15.57;10.80;;;;;;;25.05;52.97;99476.97;5073537;28;20616;-86
2022/09/09 08:09:03;;;;;;;17.37;10.70;;;;;;;25.38;52.39;99475.66;5073359;28;20165;-86
2022/09/09 08:11:29;;;;;;;13.13;10.27;;;;;;;24.47;53.88;99419.84;5073107;28;20156;-86
2022/09/09 08:13:55;;;;;;;13.90;9.20;;;;;;;22.26;51.98;98973.47;5073500;28;20624;-86
2022/09/09 08:16:30;;;;;;;12.10;9.17;;;;;;;25.60;50.85;99474.47;5073295;28;20637;-86
2022/09/09 08:18:56;;;;;;;10.30;8.80;;;;;;;24.09;51.48;99257.28;5073675;28;20156;-86
2022/09/09 08:21:26;;;;;;;13.17;9.03;;;;;;;25.69;50.67;99476.91;5073373;28;20229;-86
2022/09/09 08:23:53;;;;;;;11.37;8.83;;;;;;;25.58;50.56;99433.00;5074558;28;20218;-86
2022/09/09 08:26:24;;;;;;;11.40;9.20;;;;;;;25.54;50.79;99474.56;5073365;28;20286;-86
2022/09/09 08:28:55;;;;;;;12.30;9.03;;;;;;;25.64;51.06;99468.34;5073349;28;20686;-86
2022/09/09 08:31:27;;;;;;;11.67;9.20;;;;;;;25.89;49.47;99378.00;5074190;28;20156;-86
2022/09/09 08:33:54;;;;;;;12.70;8.87;;;;;;;26.62;47.87;99431.94;5088773;28;20226;-86
2022/09/09 08:36:22;;;;;;;15.17;8.97;;;;;;;26.11;49.15;99455.44;5072962;28;20167;-86
2022/09/09 08:38:50;;;;;;;12.20;8.93;;;;;;;26.29;49.06;99468.09;5072563;28;20168;-86
2022/09/09 08:41:37;;;;;;;11.20;8.73;;;;;;;26.58;48.65;99459.75;5087831;28;20511;-86
2022/09/09 08:44:14;;;;;;;14.77;9.30;;;;;;;26.44;48.66;99456.56;5072648;28;20168;-85
2022/09/09 08:47:14;;;;;;;15.13;9.70;;;;;;;26.72;48.30;99462.06;5072682;28;20231;-86
2022/09/09 08:50:16;;;;;;;12.38;9.10;;;;;;;26.05;47.75;99286.00;5072857;28;20160;-86
2022/09/09 08:53:01;;;;;;;14.00;9.20;;;;;;;27.57;46.40;99452.41;5077692;28;20640;-85
2022/09/09 08:55:51;;;;;;;12.35;9.35;;;;;;;27.29;46.82;99458.25;5080890;28;20249;-85
2022/09/09 08:58:21;;;;;;;13.05;9.57;;;;;;;27.31;46.30;99443.44;5074519;28;20199;-85
2022/09/09 09:00:56;;;;;;;13.10;9.00;;;;;;;27.84;45.70;99463.00;5075992;28;20172;-86
2022/09/09 09:03:21;;;;;;;12.13;9.30;;;;;;;27.70;45.57;99459.03;5074455;28;20269;-87
2022/09/09 09:06:01;;;;;;;12.35;8.55;;;;;;;27.06;45.69;99340.09;5084615;28;20267;-86
2022/09/09 09:08:53;;;;;;;14.07;9.10;;;;;;;27.45;45.97;99405.00;5084919;28;20164;-86
2022/09/09 09:11:18;;;;;;;12.55;8.85;;;;;;;25.43;45.26;99043.50;5031567;28;20276;-86
2022/09/09 09:13:56;;;;;;;15.32;9.35;;;;;;;26.14;45.78;99215.78;5014777;28;20676;-86
2022/09/09 09:16:36;;;;;;;13.73;9.00;;;;;;;27.29;46.96;99432.25;5032316;28;20189;-86
2022/09/09 09:19:02;;;;;;;11.63;8.88;;;;;;;27.77;45.56;99440.63;5031627;28;20178;-86
2022/09/09 09:21:43;;;;;;;14.07;9.13;;;;;;;28.54;43.50;99450.75;5031059;28;20171;-86
2022/09/09 09:24:46;;;;;;;12.90;9.48;;;;;;;27.98;43.43;99382.81;5038332;28;20198;-85
2022/09/09 09:27:19;;;;;;;13.65;9.40;;;;;;;27.80;43.47;99331.25;4984560;28;20183;-85
2022/09/09 09:29:49;;;;;;;12.48;9.50;;;;;;;28.90;42.68;99423.63;4975474;28;20202;-86
2022/09/09 09:32:19;;;;;;;12.40;9.30;;;;;;;28.74;43.16;99411.09;4975262;28;20194;-86
2022/09/09 09:34:55;;;;;;;9.93;8.93;;;;;;;28.60;42.09;99360.22;4977684;28;20224;-85
2022/09/09 09:37:34;;;;;;;10.82;9.25;;;;;;;28.91;42.96;99424.50;4975953;28;20747;-85
2022/09/09 09:40:10;;;;;;;14.45;9.80;;;;;;;27.65;42.41;99216.34;4973380;28;20222;-86
2022/09/09 09:42:35;;;;;;;16.63;10.07;;;;;;;28.83;42.24;99376.94;4972685;28;20190;-85
2022/09/09 09:45:18;;;;;;;12.23;9.77;;;;;;;28.91;42.73;99394.06;4973148;28;20193;-85
2022/09/09 09:47:44;;;;;;;11.85;10.10;;;;;;;28.42;43.27;99412.00;4983051;28;20194;-86
2022/09/09 09:50:18;;;;;;;14.77;9.80;;;;;;;28.15;44.03;99395.41;5010747;28;20189;-85
2022/09/09 09:52:54;;;;;;;15.43;10.68;;;;;;;27.60;44.44;99332.69;5011434;28;20171;-85
2022/09/09 09:55:20;;;;;;;11.77;9.77;;;;;;;28.80;43.09;99390.94;5010947;28;20634;-85
2022/09/09 09:57:46;;;;;;;13.85;10.20;;;;;;;28.86;43.53;99400.31;5012411;28;20214;-88
2022/09/09 10:00:18;;;;;;;19.23;11.00;;;;;;;28.88;42.99;99403.72;4998620;28;20185;-86
2022/09/09 10:02:45;;;;;;;13.70;11.07;;;;;;;28.66;43.82;99393.97;5019798;28;20170;-86
2022/09/09 10:05:21;;;;;;;13.90;10.93;;;;;;;28.82;43.55;99396.94;5077984;28;20538;-86
2022/09/09 10:07:59;;;;;;;14.75;11.15;;;;;;;28.41;43.60;99335.63;5080146;28;20158;-86
2022/09/09 10:10:39;;;;;;;22.17;11.05;;;;;;;27.53;43.42;99144.72;5077731;28;20618;-87
2022/09/09 10:13:13;;;;;;;15.65;10.73;;;;;;;29.11;42.76;99367.38;5080306;28;20178;-87
2022/09/09 10:16:08;;;;;;;38.83;12.05;;;;;;;29.45;42.35;99369.75;5078173;28;20178;-86
2022/09/09 10:18:44;;;;;;;15.35;11.07;;;;;;;28.39;41.63;99181.16;5015216;28;20218;-87
2022/09/09 10:21:22;;;;;;;15.80;11.50;;;;;;;29.52;41.92;99372.13;5014992;28;20210;-86
2022/09/09 10:24:09;;;;;;;14.23;11.23;;;;;;;29.46;42.63;99371.47;5014533;28;20226;-86
2022/09/09 10:26:39;;;;;;;13.43;12.00;;;;;;;29.61;41.87;99378.81;5015828;28;20170;-86
2022/09/09 10:29:17;;;;;;;15.60;11.75;;;;;;;30.13;41.60;99376.13;5015813;28;20205;-87
2022/09/09 10:32:19;;;;;;;13.82;11.43;;;;;;;29.56;41.03;99264.13;5014580;28;20171;-86
2022/09/09 10:35:13;;;;;;;13.35;11.30;;;;;;;28.99;42.64;99282.56;5014463;28;20312;-87
2022/09/09 10:37:52;;;;;;;16.20;11.38;;;;;;;29.13;43.23;99363.81;4998492;28;20255;-86
2022/09/09 10:40:26;;;;;;;14.23;11.32;;;;;;;29.21;43.72;99368.78;5014625;28;20657;-86
2022/09/09 10:42:56;;;;;;;15.85;11.82;;;;;;;28.92;43.39;99337.56;5014833;28;20280;-86
2022/09/09 10:45:26;;;;;;;20.52;12.50;;;;;;;28.95;43.63;99259.28;5013421;28;20564;-86
2022/09/09 10:47:52;;;;;;;13.68;11.38;;;;;;;29.79;42.59;99360.78;5014169;28;20163;-86
2022/09/09 10:50:47;;;;;;;11.93;10.68;;;;;;;29.67;43.15;99366.38;5013970;28;20233;-87
2022/09/09 10:53:39;;;;;;;14.25;11.10;;;;;;;29.50;43.11;99352.22;4956147;29;20265;-86
2022/09/09 10:56:12;;;;;;;13.63;10.23;;;;;;;29.46;43.02;99356.69;4997459;28;20567;-86
2022/09/09 10:58:43;;;;;;;12.18;10.98;;;;;;;28.87;43.20;99277.75;5016530;28;20225;-87
2022/09/09 11:01:34;;;;;;;14.30;10.90;;;;;;;29.57;42.83;99344.13;5015039;28;20250;-87
2022/09/09 11:04:13;;;;;;;14.20;10.45;;;;;;;29.67;42.84;99350.72;5014491;28;20272;-86
2022/09/09 11:06:44;;;;;;;48.08;13.27;;;;;;;29.85;41.94;99293.59;5014554;28;20177;-87
2022/09/09 11:09:18;;;;;;;12.70;10.85;;;;;;;28.61;42.23;99163.06;5013999;28;20178;-87
2022/09/09 11:11:53;;;;;;;14.02;10.88;;;;;;;29.02;43.01;99242.50;5013739;28;20191;-86
2022/09/09 11:14:26;;;;;;;15.00;11.07;;;;;;;29.74;41.96;99258.25;4996736;28;20251;-86
2022/09/09 11:17:01;;;;;;;13.93;10.73;;;;;;;29.65;41.88;99245.53;5013238;28;20720;-86
2022/09/09 11:19:40;;;;;;;13.85;11.02;;;;;;;28.92;41.71;99089.94;5013924;28;20186;-86
2022/09/09 11:22:25;;;;;;;12.50;11.02;;;;;;;30.18;42.38;99326.31;4996890;28;20168;-86
2022/09/09 11:25:08;;;;;;;13.93;10.77;;;;;;;29.95;42.13;99310.63;5012927;28;20229;-87
2022/09/09 11:27:40;;;;;;;13.18;10.85;;;;;;;29.57;42.48;99236.28;5013740;28;20258;-86
2022/09/09 11:30:21;;;;;;;16.23;10.38;;;;;;;30.09;42.47;99309.22;5041584;28;20335;-85
2022/09/09 11:33:04;;;;;;;13.13;9.40;;;;;;;28.51;42.44;99042.66;5075990;28;20160;-84